Terminal Aerodrome Forecast
Issued by NWS

Home | Current Version | Previous Version | Graphics & Text | Print | Product List | Glossary On
Versions: 1 2 3 4 5 6 7 8 9 10 11 12 13 14
000
FTUS43 KGRB 111100
TAFATW
TAF
KATW 111135Z 1112/1212 19005KT P6SM SCT070 BKN120
      TEMPO 1112/1115 BKN070
     FM111700 19010G18KT P6SM SCT050 BKN100
     FM120600 20004KT 6SM BR VCSH SCT040 BKN090=

USA.gov is the U.S. government's official web portal to all federal, state and local government web resources and services.